sensor_id;sensor_type;location;lat;lon;timestamp;P1;durP1;ratioP1;P2;durP2;ratioP2
51654;SDS011;37732;53.106;7.030;2023-04-25T00:01:31;17.38;;;6.22;;
51654;SDS011;37732;53.106;7.030;2023-04-25T00:03:58;19.75;;;6.90;;
51654;SDS011;37732;53.106;7.030;2023-04-25T00:06:25;20.13;;;7.55;;
51654;SDS011;37732;53.106;7.030;2023-04-25T00:08:51;20.23;;;6.95;;
51654;SDS011;37732;53.106;7.030;2023-04-25T00:11:18;18.38;;;7.00;;
51654;SDS011;37732;53.106;7.030;2023-04-25T00:13:43;24.08;;;7.65;;
51654;SDS011;37732;53.106;7.030;2023-04-25T00:16:11;18.17;;;6.88;;
51654;SDS011;37732;53.106;7.030;2023-04-25T00:18:39;17.27;;;7.07;;
51654;SDS011;37732;53.106;7.030;2023-04-25T00:21:05;18.33;;;7.00;;
51654;SDS011;37732;53.106;7.030;2023-04-25T00:23:31;20.33;;;7.03;;
51654;SDS011;37732;53.106;7.030;2023-04-25T00:25:57;17.95;;;6.35;;
51654;SDS011;37732;53.106;7.030;2023-04-25T00:28:23;19.63;;;6.18;;
51654;SDS011;37732;53.106;7.030;2023-04-25T00:30:48;19.60;;;6.93;;
51654;SDS011;37732;53.106;7.030;2023-04-25T00:33:14;18.00;;;5.78;;
51654;SDS011;37732;53.106;7.030;2023-04-25T00:39:26;16.25;;;6.47;;
51654;SDS011;37732;53.106;7.030;2023-04-25T00:42:00;21.60;;;7.18;;
51654;SDS011;37732;53.106;7.030;2023-04-25T00:44:27;16.10;;;6.60;;
51654;SDS011;37732;53.106;7.030;2023-04-25T00:46:54;23.02;;;6.20;;
51654;SDS011;37732;53.106;7.030;2023-04-25T00:49:20;22.98;;;6.30;;
51654;SDS011;37732;53.106;7.030;2023-04-25T00:51:46;17.75;;;6.78;;
51654;SDS011;37732;53.106;7.030;2023-04-25T00:54:12;19.60;;;7.00;;
51654;SDS011;37732;53.106;7.030;2023-04-25T00:56:38;20.05;;;7.38;;
51654;SDS011;37732;53.106;7.030;2023-04-25T00:59:05;18.80;;;6.70;;
51654;SDS011;37732;53.106;7.030;2023-04-25T01:01:34;16.90;;;6.28;;
51654;SDS011;37732;53.106;7.030;2023-04-25T01:04:01;18.90;;;6.28;;
51654;SDS011;37732;53.106;7.030;2023-04-25T01:06:27;14.38;;;5.47;;
51654;SDS011;37732;53.106;7.030;2023-04-25T01:08:53;15.60;;;6.20;;
51654;SDS011;37732;53.106;7.030;2023-04-25T01:11:19;17.80;;;6.53;;
51654;SDS011;37732;53.106;7.030;2023-04-25T01:13:45;14.32;;;6.38;;
51654;SDS011;37732;53.106;7.030;2023-04-25T01:16:11;16.15;;;5.57;;
51654;SDS011;37732;53.106;7.030;2023-04-25T01:18:38;17.75;;;5.10;;
51654;SDS011;37732;53.106;7.030;2023-04-25T01:21:08;19.75;;;5.38;;
51654;SDS011;37732;53.106;7.030;2023-04-25T01:23:35;19.10;;;5.05;;
51654;SDS011;37732;53.106;7.030;2023-04-25T01:26:02;12.15;;;4.88;;
51654;SDS011;37732;53.106;7.030;2023-04-25T01:28:29;15.23;;;4.47;;
51654;SDS011;37732;53.106;7.030;2023-04-25T01:30:55;14.45;;;4.45;;
51654;SDS011;37732;53.106;7.030;2023-04-25T01:33:22;13.85;;;4.65;;
51654;SDS011;37732;53.106;7.030;2023-04-25T01:35:48;14.77;;;5.22;;
51654;SDS011;37732;53.106;7.030;2023-04-25T01:38:14;17.77;;;5.82;;
51654;SDS011;37732;53.106;7.030;2023-04-25T01:40:40;18.85;;;5.22;;
51654;SDS011;37732;53.106;7.030;2023-04-25T01:43:07;15.20;;;5.50;;
51654;SDS011;37732;53.106;7.030;2023-04-25T01:45:36;17.85;;;5.28;;
51654;SDS011;37732;53.106;7.030;2023-04-25T01:48:07;18.48;;;5.82;;
51654;SDS011;37732;53.106;7.030;2023-04-25T01:50:34;15.43;;;4.90;;
51654;SDS011;37732;53.106;7.030;2023-04-25T01:53:00;13.65;;;4.78;;
51654;SDS011;37732;53.106;7.030;2023-04-25T01:55:27;15.38;;;4.57;;
51654;SDS011;37732;53.106;7.030;2023-04-25T01:57:52;14.18;;;5.25;;
51654;SDS011;37732;53.106;7.030;2023-04-25T02:00:18;14.27;;;5.20;;
51654;SDS011;37732;53.106;7.030;2023-04-25T02:02:44;20.55;;;5.18;;
51654;SDS011;37732;53.106;7.030;2023-04-25T02:05:10;14.05;;;5.15;;
51654;SDS011;37732;53.106;7.030;2023-04-25T02:07:36;15.77;;;5.97;;
51654;SDS011;37732;53.106;7.030;2023-04-25T02:10:03;14.88;;;5.10;;
51654;SDS011;37732;53.106;7.030;2023-04-25T02:12:29;18.33;;;4.60;;
51654;SDS011;37732;53.106;7.030;2023-04-25T02:14:54;16.13;;;4.55;;
51654;SDS011;37732;53.106;7.030;2023-04-25T02:17:20;13.30;;;4.00;;
51654;SDS011;37732;53.106;7.030;2023-04-25T02:19:46;13.30;;;4.90;;
51654;SDS011;37732;53.106;7.030;2023-04-25T02:22:12;15.35;;;5.13;;
51654;SDS011;37732;53.106;7.030;2023-04-25T02:24:38;13.85;;;5.22;;
51654;SDS011;37732;53.106;7.030;2023-04-25T02:27:04;16.23;;;4.95;;
51654;SDS011;37732;53.106;7.030;2023-04-25T02:29:29;13.48;;;4.45;;
51654;SDS011;37732;53.106;7.030;2023-04-25T02:31:55;18.27;;;5.30;;
51654;SDS011;37732;53.106;7.030;2023-04-25T02:34:21;20.00;;;5.10;;
51654;SDS011;37732;53.106;7.030;2023-04-25T02:36:48;13.77;;;5.13;;
51654;SDS011;37732;53.106;7.030;2023-04-25T02:39:17;12.75;;;5.03;;
51654;SDS011;37732;53.106;7.030;2023-04-25T02:41:43;11.70;;;4.35;;
51654;SDS011;37732;53.106;7.030;2023-04-25T02:44:09;26.40;;;6.63;;
51654;SDS011;37732;53.106;7.030;2023-04-25T02:46:35;15.80;;;5.18;;
51654;SDS011;37732;53.106;7.030;2023-04-25T02:49:01;16.25;;;5.40;;
51654;SDS011;37732;53.106;7.030;2023-04-25T02:51:26;13.35;;;5.05;;
51654;SDS011;37732;53.106;7.030;2023-04-25T02:53:52;19.13;;;5.05;;
51654;SDS011;37732;53.106;7.030;2023-04-25T02:56:18;14.60;;;5.10;;
51654;SDS011;37732;53.106;7.030;2023-04-25T02:58:44;14.95;;;4.88;;
51654;SDS011;37732;53.106;7.030;2023-04-25T03:01:10;15.18;;;4.93;;
51654;SDS011;37732;53.106;7.030;2023-04-25T03:03:36;16.73;;;5.18;;
51654;SDS011;37732;53.106;7.030;2023-04-25T03:06:02;23.02;;;5.35;;
51654;SDS011;37732;53.106;7.030;2023-04-25T03:08:28;14.73;;;5.05;;
51654;SDS011;37732;53.106;7.030;2023-04-25T03:10:57;15.50;;;5.05;;
51654;SDS011;37732;53.106;7.030;2023-04-25T03:13:23;15.70;;;4.53;;
51654;SDS011;37732;53.106;7.030;2023-04-25T03:15:49;13.70;;;4.72;;
51654;SDS011;37732;53.106;7.030;2023-04-25T03:18:15;12.18;;;4.18;;
51654;SDS011;37732;53.106;7.030;2023-04-25T03:20:41;15.70;;;4.78;;
51654;SDS011;37732;53.106;7.030;2023-04-25T03:23:07;15.27;;;4.22;;
51654;SDS011;37732;53.106;7.030;2023-04-25T03:25:33;12.35;;;4.20;;
51654;SDS011;37732;53.106;7.030;2023-04-25T03:28:00;14.63;;;4.40;;
51654;SDS011;37732;53.106;7.030;2023-04-25T03:30:25;12.73;;;4.35;;
51654;SDS011;37732;53.106;7.030;2023-04-25T03:32:51;14.82;;;4.13;;
51654;SDS011;37732;53.106;7.030;2023-04-25T03:35:16;12.18;;;4.55;;
51654;SDS011;37732;53.106;7.030;2023-04-25T03:37:42;9.35;;;3.25;;
51654;SDS011;37732;53.106;7.030;2023-04-25T03:40:11;18.23;;;3.75;;
51654;SDS011;37732;53.106;7.030;2023-04-25T03:42:37;12.25;;;3.90;;
51654;SDS011;37732;53.106;7.030;2023-04-25T03:45:02;12.13;;;3.95;;
51654;SDS011;37732;53.106;7.030;2023-04-25T03:47:28;12.38;;;4.05;;
51654;SDS011;37732;53.106;7.030;2023-04-25T03:49:57;11.73;;;3.22;;
51654;SDS011;37732;53.106;7.030;2023-04-25T03:52:25;10.38;;;3.60;;
51654;SDS011;37732;53.106;7.030;2023-04-25T03:54:51;13.20;;;4.22;;
51654;SDS011;37732;53.106;7.030;2023-04-25T03:57:17;10.70;;;3.53;;
51654;SDS011;37732;53.106;7.030;2023-04-25T03:59:42;13.95;;;4.10;;
51654;SDS011;37732;53.106;7.030;2023-04-25T04:02:08;9.90;;;3.22;;
51654;SDS011;37732;53.106;7.030;2023-04-25T04:04:34;9.45;;;3.40;;
51654;SDS011;37732;53.106;7.030;2023-04-25T04:07:00;12.52;;;3.45;;
51654;SDS011;37732;53.106;7.030;2023-04-25T04:09:26;13.07;;;4.28;;
51654;SDS011;37732;53.106;7.030;2023-04-25T04:11:52;11.10;;;4.30;;
51654;SDS011;37732;53.106;7.030;2023-04-25T04:14:18;9.27;;;3.53;;
51654;SDS011;37732;53.106;7.030;2023-04-25T04:16:44;13.00;;;4.25;;
51654;SDS011;37732;53.106;7.030;2023-04-25T04:19:10;9.05;;;3.78;;
51654;SDS011;37732;53.106;7.030;2023-04-25T04:21:36;11.98;;;4.28;;
51654;SDS011;37732;53.106;7.030;2023-04-25T04:24:02;16.85;;;3.80;;
51654;SDS011;37732;53.106;7.030;2023-04-25T04:26:28;11.52;;;4.90;;
51654;SDS011;37732;53.106;7.030;2023-04-25T04:28:54;14.88;;;4.05;;
51654;SDS011;37732;53.106;7.030;2023-04-25T04:31:20;14.80;;;4.13;;
51654;SDS011;37732;53.106;7.030;2023-04-25T04:33:47;11.63;;;4.10;;
51654;SDS011;37732;53.106;7.030;2023-04-25T04:36:13;16.40;;;4.70;;
51654;SDS011;37732;53.106;7.030;2023-04-25T04:38:39;12.05;;;3.60;;
51654;SDS011;37732;53.106;7.030;2023-04-25T04:41:06;13.00;;;3.75;;
51654;SDS011;37732;53.106;7.030;2023-04-25T04:43:32;14.65;;;4.85;;
51654;SDS011;37732;53.106;7.030;2023-04-25T04:45:58;9.80;;;3.60;;
51654;SDS011;37732;53.106;7.030;2023-04-25T04:48:26;10.93;;;3.22;;
51654;SDS011;37732;53.106;7.030;2023-04-25T04:50:53;10.38;;;4.10;;
51654;SDS011;37732;53.106;7.030;2023-04-25T04:53:19;12.18;;;4.28;;
51654;SDS011;37732;53.106;7.030;2023-04-25T04:55:45;11.30;;;3.85;;
51654;SDS011;37732;53.106;7.030;2023-04-25T04:58:11;10.60;;;3.65;;
51654;SDS011;37732;53.106;7.030;2023-04-25T05:00:37;12.32;;;3.85;;
51654;SDS011;37732;53.106;7.030;2023-04-25T05:03:03;12.15;;;3.55;;
51654;SDS011;37732;53.106;7.030;2023-04-25T05:05:30;13.55;;;4.03;;
51654;SDS011;37732;53.106;7.030;2023-04-25T05:07:56;11.02;;;3.30;;
51654;SDS011;37732;53.106;7.030;2023-04-25T05:10:21;8.30;;;3.28;;
51654;SDS011;37732;53.106;7.030;2023-04-25T05:12:47;11.05;;;3.78;;
51654;SDS011;37732;53.106;7.030;2023-04-25T05:15:13;10.52;;;3.20;;
51654;SDS011;37732;53.106;7.030;2023-04-25T05:17:39;10.48;;;3.40;;
51654;SDS011;37732;53.106;7.030;2023-04-25T05:20:05;9.80;;;3.72;;
51654;SDS011;37732;53.106;7.030;2023-04-25T05:22:32;12.85;;;4.07;;
51654;SDS011;37732;53.106;7.030;2023-04-25T05:24:58;9.80;;;3.72;;
51654;SDS011;37732;53.106;7.030;2023-04-25T05:27:24;10.77;;;3.70;;
51654;SDS011;37732;53.106;7.030;2023-04-25T05:29:49;11.65;;;4.18;;
51654;SDS011;37732;53.106;7.030;2023-04-25T05:32:15;11.85;;;4.10;;
51654;SDS011;37732;53.106;7.030;2023-04-25T05:34:41;11.80;;;3.92;;
51654;SDS011;37732;53.106;7.030;2023-04-25T05:37:07;9.70;;;3.00;;
51654;SDS011;37732;53.106;7.030;2023-04-25T05:39:33;11.38;;;3.85;;
51654;SDS011;37732;53.106;7.030;2023-04-25T05:41:59;10.48;;;3.72;;
51654;SDS011;37732;53.106;7.030;2023-04-25T05:44:24;16.95;;;4.57;;
51654;SDS011;37732;53.106;7.030;2023-04-25T05:46:51;15.80;;;3.85;;
51654;SDS011;37732;53.106;7.030;2023-04-25T05:49:17;12.50;;;4.00;;
51654;SDS011;37732;53.106;7.030;2023-04-25T05:51:43;12.35;;;4.50;;
51654;SDS011;37732;53.106;7.030;2023-04-25T05:54:09;13.32;;;3.30;;
51654;SDS011;37732;53.106;7.030;2023-04-25T05:56:35;17.10;;;4.80;;
51654;SDS011;37732;53.106;7.030;2023-04-25T05:59:01;12.25;;;3.40;;
51654;SDS011;37732;53.106;7.030;2023-04-25T06:01:27;11.27;;;3.60;;
51654;SDS011;37732;53.106;7.030;2023-04-25T06:03:53;8.00;;;2.88;;
51654;SDS011;37732;53.106;7.030;2023-04-25T06:06:18;11.90;;;3.70;;
51654;SDS011;37732;53.106;7.030;2023-04-25T06:08:44;11.02;;;3.40;;
51654;SDS011;37732;53.106;7.030;2023-04-25T06:11:10;9.15;;;3.45;;
51654;SDS011;37732;53.106;7.030;2023-04-25T06:13:36;13.52;;;4.20;;
51654;SDS011;37732;53.106;7.030;2023-04-25T06:16:02;9.38;;;3.30;;
51654;SDS011;37732;53.106;7.030;2023-04-25T06:18:28;10.38;;;3.13;;
51654;SDS011;37732;53.106;7.030;2023-04-25T06:20:53;14.77;;;4.25;;
51654;SDS011;37732;53.106;7.030;2023-04-25T06:23:19;12.40;;;3.95;;
51654;SDS011;37732;53.106;7.030;2023-04-25T06:25:45;8.98;;;3.15;;
51654;SDS011;37732;53.106;7.030;2023-04-25T06:28:11;7.30;;;2.95;;
51654;SDS011;37732;53.106;7.030;2023-04-25T06:30:37;8.57;;;3.00;;
51654;SDS011;37732;53.106;7.030;2023-04-25T06:33:03;8.32;;;3.13;;
51654;SDS011;37732;53.106;7.030;2023-04-25T06:35:29;8.35;;;2.70;;
51654;SDS011;37732;53.106;7.030;2023-04-25T06:37:55;10.38;;;2.75;;
51654;SDS011;37732;53.106;7.030;2023-04-25T06:40:21;23.13;;;5.15;;
51654;SDS011;37732;53.106;7.030;2023-04-25T06:42:47;13.02;;;3.53;;
51654;SDS011;37732;53.106;7.030;2023-04-25T06:45:13;12.77;;;2.90;;
51654;SDS011;37732;53.106;7.030;2023-04-25T06:47:39;9.18;;;2.63;;
51654;SDS011;37732;53.106;7.030;2023-04-25T06:50:05;7.72;;;2.28;;
51654;SDS011;37732;53.106;7.030;2023-04-25T06:52:32;9.95;;;2.70;;
51654;SDS011;37732;53.106;7.030;2023-04-25T06:54:58;6.38;;;2.80;;
51654;SDS011;37732;53.106;7.030;2023-04-25T06:57:23;9.27;;;2.53;;
51654;SDS011;37732;53.106;7.030;2023-04-25T06:59:50;7.57;;;2.08;;
51654;SDS011;37732;53.106;7.030;2023-04-25T07:02:16;8.00;;;2.90;;
51654;SDS011;37732;53.106;7.030;2023-04-25T07:04:42;7.80;;;2.80;;
51654;SDS011;37732;53.106;7.030;2023-04-25T07:07:08;7.43;;;2.65;;
51654;SDS011;37732;53.106;7.030;2023-04-25T07:09:34;8.60;;;2.80;;
51654;SDS011;37732;53.106;7.030;2023-04-25T07:12:00;11.35;;;2.65;;
51654;SDS011;37732;53.106;7.030;2023-04-25T07:14:27;10.60;;;2.65;;
51654;SDS011;37732;53.106;7.030;2023-04-25T07:16:53;8.82;;;3.00;;
51654;SDS011;37732;53.106;7.030;2023-04-25T07:19:21;7.93;;;3.47;;
51654;SDS011;37732;53.106;7.030;2023-04-25T07:21:48;7.57;;;2.80;;
51654;SDS011;37732;53.106;7.030;2023-04-25T07:24:14;9.75;;;2.92;;
51654;SDS011;37732;53.106;7.030;2023-04-25T07:26:40;10.07;;;3.53;;
51654;SDS011;37732;53.106;7.030;2023-04-25T07:29:06;6.55;;;2.95;;
51654;SDS011;37732;53.106;7.030;2023-04-25T07:31:31;9.25;;;3.75;;
51654;SDS011;37732;53.106;7.030;2023-04-25T07:33:57;7.50;;;2.20;;
51654;SDS011;37732;53.106;7.030;2023-04-25T07:36:23;10.15;;;3.08;;
51654;SDS011;37732;53.106;7.030;2023-04-25T07:38:49;8.85;;;2.40;;
51654;SDS011;37732;53.106;7.030;2023-04-25T07:41:14;10.52;;;3.15;;
51654;SDS011;37732;53.106;7.030;2023-04-25T07:43:40;5.22;;;2.13;;
51654;SDS011;37732;53.106;7.030;2023-04-25T07:46:06;6.70;;;2.30;;
51654;SDS011;37732;53.106;7.030;2023-04-25T07:48:31;6.60;;;1.92;;
51654;SDS011;37732;53.106;7.030;2023-04-25T07:50:57;6.07;;;1.80;;
51654;SDS011;37732;53.106;7.030;2023-04-25T07:53:23;11.10;;;2.47;;
51654;SDS011;37732;53.106;7.030;2023-04-25T07:55:48;5.97;;;2.00;;
51654;SDS011;37732;53.106;7.030;2023-04-25T07:58:15;6.82;;;2.63;;
51654;SDS011;37732;53.106;7.030;2023-04-25T08:00:41;6.03;;;1.95;;
51654;SDS011;37732;53.106;7.030;2023-04-25T08:03:08;89.60;;;13.65;;
51654;SDS011;37732;53.106;7.030;2023-04-25T08:05:35;16.90;;;3.85;;
51654;SDS011;37732;53.106;7.030;2023-04-25T08:08:01;12.18;;;2.65;;
51654;SDS011;37732;53.106;7.030;2023-04-25T08:10:27;9.85;;;3.08;;
51654;SDS011;37732;53.106;7.030;2023-04-25T08:12:53;7.97;;;2.80;;
51654;SDS011;37732;53.106;7.030;2023-04-25T08:15:19;9.52;;;3.17;;
51654;SDS011;37732;53.106;7.030;2023-04-25T08:17:45;6.40;;;2.75;;
51654;SDS011;37732;53.106;7.030;2023-04-25T08:20:11;8.88;;;2.53;;
51654;SDS011;37732;53.106;7.030;2023-04-25T08:22:37;20.60;;;4.55;;
51654;SDS011;37732;53.106;7.030;2023-04-25T08:25:03;10.45;;;3.10;;
51654;SDS011;37732;53.106;7.030;2023-04-25T08:27:30;7.70;;;2.25;;
51654;SDS011;37732;53.106;7.030;2023-04-25T08:29:56;9.50;;;3.20;;
51654;SDS011;37732;53.106;7.030;2023-04-25T08:32:23;12.13;;;2.80;;
51654;SDS011;37732;53.106;7.030;2023-04-25T08:34:49;12.18;;;3.15;;
51654;SDS011;37732;53.106;7.030;2023-04-25T08:37:18;7.85;;;2.28;;
51654;SDS011;37732;53.106;7.030;2023-04-25T08:39:45;13.95;;;2.55;;
51654;SDS011;37732;53.106;7.030;2023-04-25T08:42:13;10.15;;;2.63;;
51654;SDS011;37732;53.106;7.030;2023-04-25T08:44:40;9.80;;;2.33;;
51654;SDS011;37732;53.106;7.030;2023-04-25T08:47:05;9.38;;;3.28;;
51654;SDS011;37732;53.106;7.030;2023-04-25T08:49:32;7.45;;;2.70;;
51654;SDS011;37732;53.106;7.030;2023-04-25T08:52:02;4.30;;;1.55;;
51654;SDS011;37732;53.106;7.030;2023-04-25T08:54:31;4.00;;;1.50;;
51654;SDS011;37732;53.106;7.030;2023-04-25T08:56:57;6.60;;;1.92;;
51654;SDS011;37732;53.106;7.030;2023-04-25T08:59:29;6.13;;;1.98;;
51654;SDS011;37732;53.106;7.030;2023-04-25T09:01:55;3.60;;;1.27;;
51654;SDS011;37732;53.106;7.030;2023-04-25T09:04:21;6.38;;;1.42;;
51654;SDS011;37732;53.106;7.030;2023-04-25T09:06:47;5.05;;;1.40;;
51654;SDS011;37732;53.106;7.030;2023-04-25T09:09:13;4.40;;;1.10;;
51654;SDS011;37732;53.106;7.030;2023-04-25T09:11:39;4.68;;;1.33;;
51654;SDS011;37732;53.106;7.030;2023-04-25T09:17:00;4.47;;;1.38;;
51654;SDS011;37732;53.106;7.030;2023-04-25T09:19:33;3.55;;;1.33;;
51654;SDS011;37732;53.106;7.030;2023-04-25T09:22:01;4.32;;;1.50;;
51654;SDS011;37732;53.106;7.030;2023-04-25T09:24:39;5.07;;;1.63;;
51654;SDS011;37732;53.106;7.030;2023-04-25T09:27:11;6.68;;;1.80;;
51654;SDS011;37732;53.106;7.030;2023-04-25T09:29:43;7.57;;;2.10;;
51654;SDS011;37732;53.106;7.030;2023-04-25T09:32:22;7.70;;;2.17;;
51654;SDS011;37732;53.106;7.030;2023-04-25T09:34:51;5.07;;;1.45;;
51654;SDS011;37732;53.106;7.030;2023-04-25T09:37:23;7.00;;;2.22;;
51654;SDS011;37732;53.106;7.030;2023-04-25T09:39:55;9.95;;;2.35;;
51654;SDS011;37732;53.106;7.030;2023-04-25T09:42:24;6.20;;;2.00;;
51654;SDS011;37732;53.106;7.030;2023-04-25T09:44:52;8.02;;;2.50;;
51654;SDS011;37732;53.106;7.030;2023-04-25T09:47:19;5.65;;;2.42;;
51654;SDS011;37732;53.106;7.030;2023-04-25T09:49:47;8.18;;;2.38;;
51654;SDS011;37732;53.106;7.030;2023-04-25T09:52:13;9.43;;;3.00;;
51654;SDS011;37732;53.106;7.030;2023-04-25T09:54:41;7.60;;;2.67;;
51654;SDS011;37732;53.106;7.030;2023-04-25T09:57:10;8.43;;;2.53;;
51654;SDS011;37732;53.106;7.030;2023-04-25T09:59:51;10.85;;;2.58;;
51654;SDS011;37732;53.106;7.030;2023-04-25T10:02:18;9.43;;;2.30;;
51654;SDS011;37732;53.106;7.030;2023-04-25T10:04:50;7.72;;;2.33;;
51654;SDS011;37732;53.106;7.030;2023-04-25T10:07:20;7.03;;;2.60;;
51654;SDS011;37732;53.106;7.030;2023-04-25T10:09:53;8.02;;;2.38;;
51654;SDS011;37732;53.106;7.030;2023-04-25T10:12:22;8.93;;;2.83;;
51654;SDS011;37732;53.106;7.030;2023-04-25T10:14:48;7.00;;;2.35;;
51654;SDS011;37732;53.106;7.030;2023-04-25T10:17:14;7.65;;;2.53;;
51654;SDS011;37732;53.106;7.030;2023-04-25T10:19:40;7.20;;;2.45;;
51654;SDS011;37732;53.106;7.030;2023-04-25T10:22:15;7.75;;;2.33;;
51654;SDS011;37732;53.106;7.030;2023-04-25T10:24:46;6.97;;;2.42;;
51654;SDS011;37732;53.106;7.030;2023-04-25T10:27:12;6.40;;;2.65;;
51654;SDS011;37732;53.106;7.030;2023-04-25T10:29:39;8.27;;;3.15;;
51654;SDS011;37732;53.106;7.030;2023-04-25T10:32:08;13.10;;;2.92;;
51654;SDS011;37732;53.106;7.030;2023-04-25T10:34:41;9.60;;;2.83;;
51654;SDS011;37732;53.106;7.030;2023-04-25T10:37:09;9.93;;;2.63;;
51654;SDS011;37732;53.106;7.030;2023-04-25T10:39:35;5.95;;;1.92;;
51654;SDS011;37732;53.106;7.030;2023-04-25T10:42:06;6.30;;;2.40;;
51654;SDS011;37732;53.106;7.030;2023-04-25T10:44:36;5.75;;;1.85;;
51654;SDS011;37732;53.106;7.030;2023-04-25T10:47:03;6.88;;;1.85;;
51654;SDS011;37732;53.106;7.030;2023-04-25T10:49:35;8.20;;;2.15;;
51654;SDS011;37732;53.106;7.030;2023-04-25T10:54:53;5.93;;;2.30;;
51654;SDS011;37732;53.106;7.030;2023-04-25T10:57:35;7.70;;;1.90;;
51654;SDS011;37732;53.106;7.030;2023-04-25T11:02:46;7.15;;;3.05;;
51654;SDS011;37732;53.106;7.030;2023-04-25T11:07:56;10.68;;;2.08;;
51654;SDS011;37732;53.106;7.030;2023-04-25T11:10:26;4.45;;;1.55;;
51654;SDS011;37732;53.106;7.030;2023-04-25T11:12:57;7.72;;;1.77;;
51654;SDS011;37732;53.106;7.030;2023-04-25T11:15:23;6.97;;;2.03;;
51654;SDS011;37732;53.106;7.030;2023-04-25T11:17:53;5.00;;;2.13;;
51654;SDS011;37732;53.106;7.030;2023-04-25T11:20:20;6.65;;;2.10;;
51654;SDS011;37732;53.106;7.030;2023-04-25T11:22:46;11.52;;;2.45;;
51654;SDS011;37732;53.106;7.030;2023-04-25T11:25:13;9.40;;;2.17;;
51654;SDS011;37732;53.106;7.030;2023-04-25T11:27:54;9.45;;;2.53;;
51654;SDS011;37732;53.106;7.030;2023-04-25T11:30:24;6.30;;;2.20;;
51654;SDS011;37732;53.106;7.030;2023-04-25T11:32:52;5.20;;;1.95;;
51654;SDS011;37732;53.106;7.030;2023-04-25T11:35:21;6.13;;;2.00;;
51654;SDS011;37732;53.106;7.030;2023-04-25T11:37:48;5.78;;;2.13;;
51654;SDS011;37732;53.106;7.030;2023-04-25T11:40:15;5.13;;;1.83;;
51654;SDS011;37732;53.106;7.030;2023-04-25T11:42:45;5.00;;;2.38;;
51654;SDS011;37732;53.106;7.030;2023-04-25T11:45:11;7.57;;;2.17;;
51654;SDS011;37732;53.106;7.030;2023-04-25T11:47:38;6.53;;;2.65;;
51654;SDS011;37732;53.106;7.030;2023-04-25T11:50:05;7.20;;;2.35;;
51654;SDS011;37732;53.106;7.030;2023-04-25T11:55:06;10.53;;;2.43;;
51654;SDS011;37732;53.106;7.030;2023-04-25T11:57:38;6.07;;;2.28;;
51654;SDS011;37732;53.106;7.030;2023-04-25T12:00:12;6.72;;;2.17;;
51654;SDS011;37732;53.106;7.030;2023-04-25T12:02:41;9.57;;;2.70;;
51654;SDS011;37732;53.106;7.030;2023-04-25T12:05:08;6.03;;;2.45;;
51654;SDS011;37732;53.106;7.030;2023-04-25T12:07:35;6.35;;;1.80;;
51654;SDS011;37732;53.106;7.030;2023-04-25T12:10:05;7.80;;;2.00;;
51654;SDS011;37732;53.106;7.030;2023-04-25T12:12:32;6.53;;;2.45;;
51654;SDS011;37732;53.106;7.030;2023-04-25T12:15:09;4.18;;;1.80;;
51654;SDS011;37732;53.106;7.030;2023-04-25T12:17:37;5.78;;;1.83;;
51654;SDS011;37732;53.106;7.030;2023-04-25T12:20:09;7.25;;;2.67;;
51654;SDS011;37732;53.106;7.030;2023-04-25T12:22:40;8.95;;;2.70;;
51654;SDS011;37732;53.106;7.030;2023-04-25T12:25:09;9.70;;;2.53;;
51654;SDS011;37732;53.106;7.030;2023-04-25T12:27:37;5.00;;;1.73;;
51654;SDS011;37732;53.106;7.030;2023-04-25T12:30:03;5.43;;;1.80;;
51654;SDS011;37732;53.106;7.030;2023-04-25T12:32:29;5.28;;;1.88;;
51654;SDS011;37732;53.106;7.030;2023-04-25T12:34:55;5.28;;;1.75;;
51654;SDS011;37732;53.106;7.030;2023-04-25T12:37:21;7.07;;;2.60;;
51654;SDS011;37732;53.106;7.030;2023-04-25T12:39:47;6.97;;;2.67;;
51654;SDS011;37732;53.106;7.030;2023-04-25T12:42:13;7.22;;;2.40;;
51654;SDS011;37732;53.106;7.030;2023-04-25T12:44:39;7.18;;;2.22;;
51654;SDS011;37732;53.106;7.030;2023-04-25T12:47:05;6.15;;;2.72;;
51654;SDS011;37732;53.106;7.030;2023-04-25T12:49:32;6.43;;;1.77;;
51654;SDS011;37732;53.106;7.030;2023-04-25T12:51:58;5.75;;;2.05;;
51654;SDS011;37732;53.106;7.030;2023-04-25T12:54:24;6.93;;;2.47;;
51654;SDS011;37732;53.106;7.030;2023-04-25T12:56:50;3.58;;;1.90;;
51654;SDS011;37732;53.106;7.030;2023-04-25T12:59:16;6.28;;;2.25;;
51654;SDS011;37732;53.106;7.030;2023-04-25T13:01:42;5.03;;;2.00;;
51654;SDS011;37732;53.106;7.030;2023-04-25T13:04:10;5.88;;;2.22;;
51654;SDS011;37732;53.106;7.030;2023-04-25T13:06:36;8.73;;;2.30;;
51654;SDS011;37732;53.106;7.030;2023-04-25T13:09:02;6.07;;;2.00;;
51654;SDS011;37732;53.106;7.030;2023-04-25T13:11:28;8.45;;;2.63;;
51654;SDS011;37732;53.106;7.030;2023-04-25T13:13:55;7.80;;;2.38;;
51654;SDS011;37732;53.106;7.030;2023-04-25T13:16:21;8.85;;;2.55;;
51654;SDS011;37732;53.106;7.030;2023-04-25T13:18:47;7.78;;;2.63;;
51654;SDS011;37732;53.106;7.030;2023-04-25T13:21:13;8.35;;;2.25;;
51654;SDS011;37732;53.106;7.030;2023-04-25T13:23:39;9.45;;;2.30;;
51654;SDS011;37732;53.106;7.030;2023-04-25T13:26:07;7.15;;;2.75;;
51654;SDS011;37732;53.106;7.030;2023-04-25T13:28:33;6.75;;;2.03;;
51654;SDS011;37732;53.106;7.030;2023-04-25T13:30:59;6.97;;;2.15;;
51654;SDS011;37732;53.106;7.030;2023-04-25T13:33:25;7.20;;;2.20;;
51654;SDS011;37732;53.106;7.030;2023-04-25T13:35:51;5.13;;;1.60;;
51654;SDS011;37732;53.106;7.030;2023-04-25T13:38:21;9.65;;;2.55;;
51654;SDS011;37732;53.106;7.030;2023-04-25T13:40:48;10.35;;;2.72;;
51654;SDS011;37732;53.106;7.030;2023-04-25T13:43:15;6.50;;;2.35;;
51654;SDS011;37732;53.106;7.030;2023-04-25T13:45:41;5.72;;;2.13;;
51654;SDS011;37732;53.106;7.030;2023-04-25T13:48:07;6.53;;;1.83;;
51654;SDS011;37732;53.106;7.030;2023-04-25T13:50:33;5.90;;;2.22;;
51654;SDS011;37732;53.106;7.030;2023-04-25T13:52:58;4.82;;;1.88;;
51654;SDS011;37732;53.106;7.030;2023-04-25T13:55:25;6.28;;;2.45;;
51654;SDS011;37732;53.106;7.030;2023-04-25T13:57:51;5.38;;;1.73;;
51654;SDS011;37732;53.106;7.030;2023-04-25T14:00:17;8.15;;;2.00;;
51654;SDS011;37732;53.106;7.030;2023-04-25T14:02:43;7.28;;;3.08;;
51654;SDS011;37732;53.106;7.030;2023-04-25T14:05:08;5.05;;;2.28;;
51654;SDS011;37732;53.106;7.030;2023-04-25T14:07:34;9.45;;;2.63;;
51654;SDS011;37732;53.106;7.030;2023-04-25T14:10:01;7.15;;;2.53;;
51654;SDS011;37732;53.106;7.030;2023-04-25T14:12:27;8.07;;;3.22;;
51654;SDS011;37732;53.106;7.030;2023-04-25T14:14:52;10.23;;;2.95;;
51654;SDS011;37732;53.106;7.030;2023-04-25T14:17:18;12.30;;;3.88;;
51654;SDS011;37732;53.106;7.030;2023-04-25T14:19:44;9.10;;;3.05;;
51654;SDS011;37732;53.106;7.030;2023-04-25T14:22:13;9.35;;;2.65;;
51654;SDS011;37732;53.106;7.030;2023-04-25T14:24:39;5.90;;;2.28;;
51654;SDS011;37732;53.106;7.030;2023-04-25T14:27:05;5.22;;;1.75;;
51654;SDS011;37732;53.106;7.030;2023-04-25T14:29:31;6.03;;;2.22;;
51654;SDS011;37732;53.106;7.030;2023-04-25T14:31:56;6.38;;;1.73;;
51654;SDS011;37732;53.106;7.030;2023-04-25T14:34:24;5.40;;;1.90;;
51654;SDS011;37732;53.106;7.030;2023-04-25T14:36:50;4.93;;;1.88;;
51654;SDS011;37732;53.106;7.030;2023-04-25T14:39:17;5.47;;;1.88;;
51654;SDS011;37732;53.106;7.030;2023-04-25T14:41:43;5.03;;;1.83;;
51654;SDS011;37732;53.106;7.030;2023-04-25T14:44:09;7.88;;;2.20;;
51654;SDS011;37732;53.106;7.030;2023-04-25T14:46:35;4.68;;;2.15;;
51654;SDS011;37732;53.106;7.030;2023-04-25T14:49:02;7.57;;;2.28;;
51654;SDS011;37732;53.106;7.030;2023-04-25T14:51:28;8.45;;;2.50;;
51654;SDS011;37732;53.106;7.030;2023-04-25T14:53:54;8.52;;;2.85;;
51654;SDS011;37732;53.106;7.030;2023-04-25T14:56:20;13.00;;;3.22;;